aviador You're here:

KMAO Decoded Metar

MARION in SC, USA
Report Time2017-03-25 17:15:00
UTC Time2017-03-25 17:24:06
Flight Rules vfr VFR
Wind210° at 05 kt
W.Decomp.*RWY 22: 5.0 kt HW 0.3 kt LCW
W.Rank210° ranks 4
Current wind is below 210° avg. (5.7)
Visibility9999 m
Phenomena:N/A
Clouds:Overcast 049 Hf
Expected CloudBase > 4,800 ft AGL from Temp-Dew spread
Ceiling4,900 ft
Temp22°C (ISA +7)
Dew Point10°C (47% RH)
AAT20.3°C
QNH1027 hPa
Density Alt627 ft
Elevation92 ft
Report Wrong Elevation
Raw Report
METAR KMAO 251715Z AUTO 21005KT 10SM OVC049 22/10 A3032 RMK AO2=

Extra information for KMAO:More info

Metar Taf Metar & Taf Last 4 Metars F.Rules Stats Wind Profile Meteogram Temp Stats Airport Information Weather charts Add Link Nearby VenuesMetar ALERT Operation Metar Decoded Social comments

AIRNAV info for KMAO